Time;durP1;ratioP1;P1;durP2;ratioP2;P2;SDS_P1;SDS_P2;PMS_P1;PMS_P2;Temp;Humidity;BMP_temperature;BMP_pressure;BME280_temperature;BME280_humidity;BME280_pressure;Samples;Min_cycle;Max_cycle;Signal;HPM_P1;HPM_P2
2022/03/02 00:01:30;;;;;;;36.72;21.65;;;5.30;99.90;;;;;;6101249;23;20085;-79
2022/03/02 00:03:56;;;;;;;36.80;21.35;;;5.20;99.90;;;;;;6100876;23;20040;-79
2022/03/02 00:06:22;;;;;;;36.97;22.63;;;5.20;99.90;;;;;;6053204;23;20018;-79
2022/03/02 00:08:47;;;;;;;36.63;22.02;;;5.20;99.90;;;;;;6125364;23;20017;-79
2022/03/02 00:11:13;;;;;;;40.03;23.48;;;5.20;99.90;;;;;;6076786;23;20073;-79
2022/03/02 00:13:40;;;;;;;40.97;24.58;;;5.20;99.90;;;;;;6076186;23;20030;-79
2022/03/02 00:16:06;;;;;;;42.22;22.58;;;5.20;99.90;;;;;;6100725;23;20021;-79
2022/03/02 00:18:31;;;;;;;37.75;23.25;;;5.20;99.90;;;;;;6125087;23;20307;-79
2022/03/02 00:20:57;;;;;;;40.95;22.95;;;5.20;99.90;;;;;;6077490;23;20453;-79
2022/03/02 00:23:23;;;;;;;41.33;23.42;;;5.10;99.90;;;;;;6125138;23;20025;-79
2022/03/02 00:25:49;;;;;;;39.40;23.40;;;5.10;99.90;;;;;;6101211;23;20006;-79
2022/03/02 00:28:15;;;;;;;36.75;21.88;;;5.10;99.90;;;;;;6076921;23;20048;-79
2022/03/02 00:30:41;;;;;;;39.15;22.95;;;5.40;99.90;;;;;;6100242;23;20032;-79
2022/03/02 00:33:07;;;;;;;34.17;22.05;;;5.10;99.90;;;;;;6100990;23;20026;-79
2022/03/02 00:35:34;;;;;;;39.85;22.23;;;5.10;99.90;;;;;;6125480;23;20025;-79
2022/03/02 00:38:02;;;;;;;41.13;23.30;;;5.60;99.90;;;;;;6100641;23;20021;-79
2022/03/02 00:40:29;;;;;;;36.20;22.65;;;5.10;99.90;;;;;;6101029;23;20013;-78
2022/03/02 00:42:55;;;;;;;38.35;22.98;;;5.00;99.90;;;;;;6100645;23;20022;-79
2022/03/02 00:45:21;;;;;;;41.58;23.50;;;5.00;99.90;;;;;;6077199;23;20013;-79
2022/03/02 00:47:47;;;;;;;39.22;21.92;;;5.00;99.90;;;;;;6100714;23;20023;-79
2022/03/02 00:50:14;;;;;;;40.03;23.05;;;5.00;99.90;;;;;;6125455;23;20029;-79
2022/03/02 00:52:40;;;;;;;41.42;22.52;;;5.00;99.90;;;;;;6101562;23;20120;-79
2022/03/02 00:55:06;;;;;;;40.33;22.27;;;5.00;99.90;;;;;;6076500;23;20025;-79
2022/03/02 00:57:32;;;;;;;36.90;21.50;;;4.90;99.90;;;;;;6076917;23;20022;-79
2022/03/02 00:59:58;;;;;;;36.75;22.33;;;4.90;99.90;;;;;;6076142;23;20014;-79
2022/03/02 01:02:24;;;;;;;37.97;22.73;;;4.90;99.90;;;;;;6076941;23;20053;-79
2022/03/02 01:04:50;;;;;;;37.55;22.05;;;5.20;99.90;;;;;;6076698;23;20017;-79
2022/03/02 01:07:16;;;;;;;40.38;22.60;;;4.90;99.90;;;;;;6100970;23;20017;-79
2022/03/02 01:09:42;;;;;;;39.65;23.35;;;5.20;99.90;;;;;;6076674;23;20492;-79
2022/03/02 01:12:07;;;;;;;38.38;22.77;;;4.80;99.90;;;;;;6125420;23;20840;-79
2022/03/02 01:14:33;;;;;;;42.00;23.67;;;4.80;99.90;;;;;;6125239;23;20049;-79
2022/03/02 01:17:00;;;;;;;40.03;23.83;;;4.80;99.90;;;;;;6124747;23;20013;-79
2022/03/02 01:19:26;;;;;;;40.20;23.13;;;4.80;99.90;;;;;;6076601;23;20018;-79
2022/03/02 01:21:52;;;;;;;40.25;22.77;;;4.80;99.90;;;;;;6100534;23;20085;-78
2022/03/02 01:24:18;;;;;;;38.83;22.30;;;4.70;99.90;;;;;;6124770;23;20408;-79
2022/03/02 01:26:46;;;;;;;38.60;23.30;;;4.70;99.90;;;;;;6077106;23;20017;-79
2022/03/02 01:29:12;;;;;;;42.30;24.27;;;4.70;99.90;;;;;;6126684;23;20053;-79
2022/03/02 01:31:38;;;;;;;41.55;22.67;;;4.60;99.90;;;;;;6102667;23;20032;-79
2022/03/02 01:42:33;;;;;;;43.03;23.52;;;4.50;99.90;;;;;;6156114;23;20060;-79
2022/03/02 01:47:28;;;;;;;43.03;24.35;;;4.50;99.90;;;;;;6056659;23;20017;-79
2022/03/02 01:49:54;;;;;;;43.58;24.05;;;4.40;99.90;;;;;;6103093;23;20536;-79
2022/03/02 01:52:19;;;;;;;39.95;22.42;;;4.40;99.90;;;;;;6080291;23;20022;-79
2022/03/02 01:54:46;;;;;;;42.95;23.00;;;4.40;99.90;;;;;;6103413;23;20025;-79
2022/03/02 01:57:12;;;;;;;44.20;24.45;;;4.80;99.90;;;;;;6079559;23;20401;-79
2022/03/02 01:59:39;;;;;;;41.00;23.80;;;4.30;99.90;;;;;;6079247;23;20021;-79
2022/03/02 02:02:04;;;;;;;42.03;23.92;;;4.30;99.90;;;;;;6103205;23;20094;-78
2022/03/02 02:04:30;;;;;;;40.05;23.08;;;4.50;99.90;;;;;;6103353;23;20422;-79
2022/03/02 02:06:56;;;;;;;40.92;23.45;;;4.20;99.90;;;;;;6103532;23;20018;-79
2022/03/02 02:09:22;;;;;;;42.35;23.83;;;4.20;99.90;;;;;;6079306;23;20583;-79
2022/03/02 02:11:47;;;;;;;38.33;22.70;;;4.20;99.90;;;;;;6127581;23;20318;-78
2022/03/02 02:14:13;;;;;;;39.88;23.90;;;4.50;99.90;;;;;;6103391;23;20032;-79
2022/03/02 02:16:39;;;;;;;43.65;24.02;;;4.10;99.90;;;;;;6103612;23;20041;-79
2022/03/02 02:19:05;;;;;;;38.40;22.35;;;4.10;99.90;;;;;;6127292;23;20064;-79
2022/03/02 02:21:30;;;;;;;42.10;23.23;;;4.10;99.90;;;;;;6127498;23;20017;-79
2022/03/02 02:23:56;;;;;;;39.78;23.67;;;4.10;99.90;;;;;;6103109;23;20018;-79
2022/03/02 02:26:22;;;;;;;39.28;24.35;;;4.10;99.90;;;;;;6078996;23;20020;-79
2022/03/02 02:28:50;;;;;;;42.42;23.17;;;4.10;99.90;;;;;;6127695;23;20048;-79
2022/03/02 02:31:16;;;;;;;44.67;22.95;;;4.10;99.90;;;;;;6102738;23;20104;-79
2022/03/02 02:33:42;;;;;;;40.05;22.88;;;4.10;99.90;;;;;;6079366;23;20107;-78
2022/03/02 02:36:08;;;;;;;42.22;23.52;;;4.00;99.90;;;;;;6103213;23;20018;-79
2022/03/02 02:38:34;;;;;;;39.38;23.58;;;4.20;99.90;;;;;;6078524;23;20068;-79
2022/03/02 02:41:00;;;;;;;40.10;22.73;;;4.00;99.90;;;;;;6103110;23;20018;-79
2022/03/02 02:43:26;;;;;;;45.60;24.13;;;3.90;99.90;;;;;;6127406;23;20031;-78
2022/03/02 02:45:53;;;;;;;41.72;23.08;;;3.90;99.90;;;;;;6127267;23;20076;-79
2022/03/02 02:48:20;;;;;;;39.42;24.10;;;4.00;99.90;;;;;;6127265;23;20017;-79
2022/03/02 02:50:46;;;;;;;46.47;25.30;;;3.90;99.90;;;;;;6102729;23;20028;-79
2022/03/02 02:53:12;;;;;;;42.65;24.13;;;3.90;99.90;;;;;;6078996;23;20080;-79
2022/03/02 02:55:39;;;;;;;40.50;23.27;;;4.00;99.90;;;;;;6101725;23;20338;-79
2022/03/02 02:58:05;;;;;;;42.78;23.58;;;4.30;99.90;;;;;;6127478;23;20018;-79
2022/03/02 03:00:34;;;;;;;39.63;22.50;;;3.90;99.90;;;;;;6078557;23;20076;-79
2022/03/02 03:03:01;;;;;;;44.70;23.42;;;4.70;99.90;;;;;;6102393;23;20013;-79
2022/03/02 03:05:30;;;;;;;40.80;23.63;;;3.90;99.90;;;;;;6101380;23;20017;-79
2022/03/02 03:07:56;;;;;;;43.20;24.40;;;3.90;99.90;;;;;;6102726;23;20022;-78
2022/03/02 03:10:23;;;;;;;44.72;23.90;;;3.90;99.90;;;;;;6102367;23;20024;-79
2022/03/02 03:12:49;;;;;;;40.50;23.15;;;3.90;99.90;;;;;;6102227;23;20018;-79
2022/03/02 03:15:17;;;;;;;41.78;24.33;;;3.90;99.90;;;;;;6102127;23;20495;-79
2022/03/02 03:17:44;;;;;;;45.63;25.15;;;3.90;99.90;;;;;;6102417;23;20017;-79
2022/03/02 03:20:12;;;;;;;42.55;23.35;;;4.00;99.90;;;;;;6125954;23;20461;-79
2022/03/02 03:22:38;;;;;;;40.88;23.88;;;3.90;99.90;;;;;;6102393;23;20026;-79
2022/03/02 03:25:07;;;;;;;45.38;22.77;;;4.00;99.90;;;;;;6126531;23;20017;-79
2022/03/02 03:27:33;;;;;;;43.78;23.25;;;3.90;99.90;;;;;;6077965;23;20481;-78
2022/03/02 03:29:59;;;;;;;43.58;24.48;;;3.90;99.90;;;;;;6098436;23;20108;-79
2022/03/02 03:32:26;;;;;;;45.88;22.77;;;3.80;99.90;;;;;;6073436;23;20051;-79
2022/03/02 03:34:53;;;;;;;41.38;22.70;;;3.90;99.90;;;;;;6073558;23;20022;-79
2022/03/02 03:37:18;;;;;;;43.05;23.90;;;4.00;99.90;;;;;;6072729;23;20453;-79
2022/03/02 03:39:44;;;;;;;42.15;24.35;;;3.80;99.90;;;;;;6049398;23;20014;-79
2022/03/02 03:42:11;;;;;;;40.78;24.02;;;3.80;99.90;;;;;;6121591;23;20054;-79
2022/03/02 03:44:37;;;;;;;38.03;21.83;;;4.30;99.90;;;;;;6072947;23;20018;-79
2022/03/02 03:47:04;;;;;;;41.95;23.75;;;4.20;99.90;;;;;;6097539;23;20022;-79
2022/03/02 03:49:29;;;;;;;49.45;23.92;;;3.70;99.90;;;;;;6097134;23;20041;-79
2022/03/02 03:51:55;;;;;;;42.35;23.13;;;3.70;99.90;;;;;;6072920;23;20096;-79
2022/03/02 03:54:21;;;;;;;45.25;24.30;;;3.70;99.90;;;;;;6072997;23;20481;-79
2022/03/02 03:56:47;;;;;;;42.78;24.02;;;4.20;99.90;;;;;;6073319;23;20016;-79
2022/03/02 03:59:13;;;;;;;42.53;23.92;;;4.30;99.90;;;;;;6073019;23;20109;-78
2022/03/02 04:01:38;;;;;;;40.92;22.92;;;3.70;99.90;;;;;;6072661;23;20022;-79
2022/03/02 04:04:05;;;;;;;47.40;24.73;;;3.70;99.90;;;;;;6049154;23;20014;-79
2022/03/02 04:06:30;;;;;;;42.70;23.95;;;3.70;99.90;;;;;;6072450;23;20018;-79
2022/03/02 04:08:56;;;;;;;41.63;23.52;;;3.60;99.90;;;;;;6049389;23;20029;-79
2022/03/02 04:11:22;;;;;;;43.63;24.23;;;4.10;99.90;;;;;;6072885;23;20018;-79
2022/03/02 04:13:48;;;;;;;42.63;24.40;;;3.60;99.90;;;;;;6049331;23;20013;-79
2022/03/02 04:16:14;;;;;;;40.38;23.00;;;3.60;99.90;;;;;;6096761;23;20469;-79
2022/03/02 04:18:39;;;;;;;40.03;24.15;;;3.60;99.90;;;;;;6048800;23;20050;-79
2022/03/02 04:21:05;;;;;;;41.85;23.52;;;3.60;99.90;;;;;;6048811;23;20080;-79
2022/03/02 04:23:31;;;;;;;38.92;22.55;;;3.60;99.90;;;;;;6096753;23;20021;-79
2022/03/02 04:25:57;;;;;;;45.17;24.60;;;3.60;99.90;;;;;;6049099;23;20484;-79
2022/03/02 04:28:23;;;;;;;45.22;25.52;;;3.60;99.90;;;;;;6072523;23;20389;-79
2022/03/02 04:30:49;;;;;;;45.22;25.65;;;3.60;99.90;;;;;;6085792;23;20028;-79
2022/03/02 04:33:15;;;;;;;50.15;25.45;;;3.60;99.90;;;;;;6101849;23;20052;-78
2022/03/02 04:35:41;;;;;;;48.20;25.23;;;4.40;99.90;;;;;;6101872;23;20396;-79
2022/03/02 04:38:08;;;;;;;48.35;25.65;;;3.60;99.90;;;;;;6101553;23;20021;-79
2022/03/02 04:40:34;;;;;;;45.35;24.48;;;3.60;99.90;;;;;;6125342;23;20013;-78
2022/03/02 04:42:59;;;;;;;42.65;24.13;;;3.60;99.90;;;;;;6077875;23;20405;-79
2022/03/02 04:45:27;;;;;;;45.33;25.67;;;3.60;99.90;;;;;;6101370;23;20045;-79
2022/03/02 04:47:54;;;;;;;49.28;24.65;;;3.60;99.90;;;;;;6125842;23;20072;-79
2022/03/02 04:50:20;;;;;;;44.13;24.42;;;3.70;99.90;;;;;;6125886;23;20029;-79
2022/03/02 04:52:46;;;;;;;46.00;26.00;;;3.60;99.90;;;;;;6101412;23;20021;-79
2022/03/02 04:55:13;;;;;;;45.45;25.23;;;4.30;99.90;;;;;;6100116;23;20067;-79
2022/03/02 04:57:44;;;;;;;40.63;23.80;;;3.60;99.90;;;;;;6125060;23;20392;-79
2022/03/02 05:00:16;;;;;;;45.25;24.63;;;4.20;99.90;;;;;;6125044;23;20111;-79
2022/03/02 05:02:43;;;;;;;40.97;23.40;;;3.60;99.90;;;;;;6101182;23;20520;-79
2022/03/02 05:05:11;;;;;;;45.65;24.98;;;3.70;99.90;;;;;;6101482;23;20476;-78
2022/03/02 05:07:37;;;;;;;46.53;23.85;;;3.60;99.90;;;;;;6077968;23;20100;-78
2022/03/02 05:10:04;;;;;;;44.70;24.02;;;3.60;99.90;;;;;;6100990;23;20057;-78
2022/03/02 05:12:30;;;;;;;44.50;23.52;;;3.70;99.90;;;;;;6101355;23;20024;-79
2022/03/02 05:14:56;;;;;;;48.35;24.52;;;3.60;99.90;;;;;;6077673;23;20022;-79
2022/03/02 05:17:23;;;;;;;49.85;24.73;;;3.60;99.90;;;;;;6101305;23;20052;-79
2022/03/02 05:19:49;;;;;;;44.47;25.92;;;3.90;99.90;;;;;;6077597;23;20017;-78
2022/03/02 05:22:15;;;;;;;45.25;23.25;;;3.70;99.90;;;;;;6077813;23;20073;-79
2022/03/02 05:24:41;;;;;;;43.58;24.60;;;3.90;99.90;;;;;;6101357;23;20524;-79
2022/03/02 05:27:07;;;;;;;40.47;23.35;;;3.70;99.90;;;;;;6053502;23;20013;-79
2022/03/02 05:29:33;;;;;;;39.75;23.48;;;3.60;99.90;;;;;;6100653;23;20017;-79
2022/03/02 05:32:00;;;;;;;49.35;25.80;;;3.60;99.90;;;;;;6053394;23;20026;-78
2022/03/02 05:34:26;;;;;;;48.65;24.92;;;3.60;99.90;;;;;;6101651;23;20419;-79
2022/03/02 05:36:51;;;;;;;45.45;25.60;;;3.60;99.90;;;;;;6077486;23;20060;-79
2022/03/02 05:39:17;;;;;;;45.00;24.58;;;3.60;99.90;;;;;;6150026;23;20484;-78
2022/03/02 05:41:43;;;;;;;46.28;25.60;;;3.60;99.90;;;;;;6077521;23;20314;-79
2022/03/02 05:44:09;;;;;;;49.67;27.10;;;4.10;99.90;;;;;;6053347;23;20026;-79
2022/03/02 05:46:35;;;;;;;45.08;25.23;;;3.60;99.90;;;;;;6101214;23;20026;-79
2022/03/02 05:49:05;;;;;;;44.53;25.42;;;3.60;99.90;;;;;;6125536;23;20084;-79
2022/03/02 05:51:32;;;;;;;41.92;24.50;;;3.60;99.90;;;;;;6101418;23;20109;-78
2022/03/02 05:53:58;;;;;;;46.35;26.05;;;3.80;99.90;;;;;;6125610;23;20037;-79
2022/03/02 05:56:25;;;;;;;46.55;26.48;;;3.60;99.90;;;;;;6125730;23;20022;-79
2022/03/02 05:58:51;;;;;;;48.03;26.15;;;3.60;99.90;;;;;;6125349;23;20018;-79
2022/03/02 06:01:17;;;;;;;45.85;25.33;;;4.10;99.90;;;;;;6100474;23;20017;-79
2022/03/02 06:03:44;;;;;;;48.60;25.85;;;3.60;99.90;;;;;;6125884;23;20017;-79
2022/03/02 06:06:10;;;;;;;46.60;24.20;;;3.60;99.90;;;;;;6125213;23;20120;-78
2022/03/02 06:08:36;;;;;;;48.05;25.88;;;3.60;99.90;;;;;;6125222;23;20027;-79
2022/03/02 06:11:03;;;;;;;46.03;26.15;;;3.60;99.90;;;;;;6125230;23;20080;-78
2022/03/02 06:13:29;;;;;;;45.72;26.00;;;3.60;99.90;;;;;;6101162;23;20021;-79
2022/03/02 06:15:57;;;;;;;45.78;25.50;;;3.50;99.90;;;;;;6103175;23;20028;-79
2022/03/02 06:18:24;;;;;;;42.95;24.67;;;3.50;99.90;;;;;;6126681;23;20483;-79
2022/03/02 06:20:51;;;;;;;48.55;26.17;;;3.50;99.90;;;;;;6102562;23;20554;-79
2022/03/02 06:23:21;;;;;;;40.08;24.70;;;3.50;99.90;;;;;;6126949;23;20036;-78
2022/03/02 06:25:47;;;;;;;42.42;23.77;;;3.50;99.90;;;;;;6103344;23;20100;-77
2022/03/02 06:28:14;;;;;;;45.70;25.42;;;3.50;99.90;;;;;;6102386;23;20013;-79
2022/03/02 06:30:40;;;;;;;48.38;25.05;;;3.40;99.90;;;;;;6068879;23;20021;-76
2022/03/02 06:33:08;;;;;;;43.75;24.25;;;3.50;99.90;;;;;;6093860;23;20064;-76
2022/03/02 06:35:33;;;;;;;42.33;23.55;;;3.50;99.90;;;;;;6094178;23;20032;-76
2022/03/02 06:37:59;;;;;;;45.70;25.08;;;3.50;99.90;;;;;;6094684;23;20025;-77
2022/03/02 06:40:25;;;;;;;41.22;23.90;;;3.50;99.90;;;;;;6095229;23;20112;-77
2022/03/02 06:42:59;;;;;;;43.50;23.52;;;3.50;99.90;;;;;;6119382;23;20096;-76
2022/03/02 06:45:45;;;;;;;50.00;26.23;;;3.50;99.90;;;;;;6119241;23;20935;-76
2022/03/02 06:48:13;;;;;;;43.58;23.30;;;3.50;99.90;;;;;;6095141;23;20045;-76
2022/03/02 06:50:43;;;;;;;42.13;23.65;;;4.70;99.90;;;;;;6120030;23;20017;-77
2022/03/02 06:53:13;;;;;;;44.97;24.70;;;3.50;99.90;;;;;;6120325;23;20057;-77
2022/03/02 06:55:41;;;;;;;46.65;24.48;;;3.50;99.90;;;;;;6071416;23;20088;-76
2022/03/02 06:58:10;;;;;;;42.67;23.95;;;3.60;99.90;;;;;;6095034;23;20483;-76
2022/03/02 07:00:37;;;;;;;44.05;23.63;;;3.50;99.90;;;;;;6118678;23;20060;-76
2022/03/02 07:03:14;;;;;;;40.58;24.25;;;3.60;99.90;;;;;;6095358;23;20017;-76
2022/03/02 07:05:40;;;;;;;44.72;25.05;;;3.60;99.90;;;;;;6094663;23;20017;-76
2022/03/02 07:08:08;;;;;;;44.00;24.13;;;3.60;99.90;;;;;;6095163;23;20525;-76
2022/03/02 07:10:36;;;;;;;47.00;25.25;;;3.70;99.90;;;;;;6094488;23;20088;-76
2022/03/02 07:13:04;;;;;;;45.30;23.80;;;3.70;99.90;;;;;;6094563;23;20075;-77
2022/03/02 07:15:31;;;;;;;48.80;23.55;;;3.70;99.90;;;;;;6094913;23;20022;-76
2022/03/02 07:18:02;;;;;;;47.30;23.90;;;3.80;99.90;;;;;;6119088;23;20031;-76
2022/03/02 07:20:29;;;;;;;43.72;25.02;;;3.80;99.90;;;;;;6125338;23;20025;-77
2022/03/02 07:22:56;;;;;;;43.08;23.95;;;3.80;99.90;;;;;;6102392;23;20322;-77
2022/03/02 07:25:25;;;;;;;39.80;22.52;;;3.80;99.90;;;;;;6102387;23;20017;-77
2022/03/02 07:27:52;;;;;;;40.65;23.48;;;3.90;99.90;;;;;;6127034;23;20389;-77
2022/03/02 07:30:18;;;;;;;40.67;23.25;;;3.90;99.90;;;;;;6101656;23;20017;-76
2022/03/02 07:32:45;;;;;;;41.47;21.83;;;3.90;99.90;;;;;;6101996;23;20029;-76
2022/03/02 07:35:13;;;;;;;38.10;22.65;;;3.90;99.90;;;;;;6102292;23;20447;-76
2022/03/02 07:37:39;;;;;;;41.05;22.67;;;3.90;99.90;;;;;;6127052;23;20111;-76
2022/03/02 07:40:06;;;;;;;39.75;21.75;;;3.90;99.90;;;;;;6102171;23;20025;-76
2022/03/02 07:42:33;;;;;;;43.42;23.48;;;3.90;99.90;;;;;;6126424;23;20351;-76
2022/03/02 07:44:59;;;;;;;44.63;23.67;;;3.80;99.90;;;;;;6101858;23;20349;-76
2022/03/02 07:47:25;;;;;;;41.92;24.35;;;4.10;99.90;;;;;;6102162;23;20014;-76
2022/03/02 07:49:51;;;;;;;42.92;24.52;;;3.80;99.90;;;;;;6126263;23;20060;-76
2022/03/02 07:52:19;;;;;;;42.35;23.05;;;3.90;99.90;;;;;;6126469;23;20054;-76
2022/03/02 07:54:47;;;;;;;42.65;23.58;;;3.90;99.90;;;;;;6078122;23;20044;-77
2022/03/02 07:57:14;;;;;;;41.15;23.17;;;3.90;99.90;;;;;;6055686;23;20076;-76
2022/03/02 07:59:44;;;;;;;42.08;23.08;;;4.00;99.90;;;;;;6126161;23;20480;-76
2022/03/02 08:02:12;;;;;;;43.55;23.30;;;3.90;99.90;;;;;;6126675;23;20080;-76
2022/03/02 08:04:39;;;;;;;42.47;24.02;;;4.00;99.90;;;;;;6102241;23;20017;-76
2022/03/02 08:07:05;;;;;;;46.03;24.30;;;4.20;99.90;;;;;;6126354;23;20037;-76
2022/03/02 08:09:32;;;;;;;37.75;22.60;;;4.70;99.90;;;;;;6078172;23;20028;-76
2022/03/02 08:11:59;;;;;;;39.28;23.92;;;5.30;99.90;;;;;;6102068;23;20022;-76
2022/03/02 08:14:26;;;;;;;38.40;23.38;;;5.60;99.90;;;;;;6102031;23;20103;-76
2022/03/02 08:16:53;;;;;;;36.92;22.48;;;5.60;99.90;;;;;;6077829;23;20022;-76
2022/03/02 08:19:20;;;;;;;37.63;22.10;;;6.30;99.90;;;;;;6125979;23;20061;-76
2022/03/02 08:21:57;;;;;;;38.03;21.33;;;6.80;99.90;;;;;;6126288;23;20084;-76
2022/03/02 08:24:29;;;;;;;34.65;21.50;;;7.30;99.90;;;;;;6101570;23;20017;-81
2022/03/02 08:27:00;;;;;;;38.85;21.98;;;7.60;99.90;;;;;;6126253;23;20017;-84
2022/03/02 08:29:30;;;;;;;35.83;20.95;;;7.60;99.90;;;;;;6126377;23;20018;-84
2022/03/02 08:31:59;;;;;;;32.13;20.45;;;7.70;99.90;;;;;;6078374;23;20026;-84
2022/03/02 08:34:29;;;;;;;32.13;21.60;;;8.00;99.90;;;;;;6101696;23;20028;-84
2022/03/02 08:36:56;;;;;;;32.65;20.80;;;8.10;99.90;;;;;;6101387;23;20326;-84
2022/03/02 08:39:23;;;;;;;29.38;20.13;;;8.30;99.90;;;;;;6101752;23;20022;-85
2022/03/02 08:41:49;;;;;;;35.30;21.33;;;8.40;99.90;;;;;;6126690;23;20173;-84
2022/03/02 08:44:15;;;;;;;33.38;21.13;;;8.30;99.90;;;;;;6101208;23;20014;-84
2022/03/02 08:46:45;;;;;;;32.17;19.08;;;8.20;99.90;;;;;;6101687;23;20064;-84
2022/03/02 08:49:12;;;;;;;35.47;21.60;;;8.20;99.90;;;;;;6055087;23;20018;-84
2022/03/02 08:51:39;;;;;;;35.60;20.42;;;8.40;99.90;;;;;;6101476;23;20018;-84
2022/03/02 08:54:05;;;;;;;32.92;20.25;;;8.30;99.90;;;;;;6077991;23;20040;-84
2022/03/02 08:56:37;;;;;;;30.00;19.50;;;8.30;99.90;;;;;;6101904;23;20018;-84
2022/03/02 08:59:04;;;;;;;33.28;20.70;;;8.10;99.90;;;;;;6101619;23;20018;-84
2022/03/02 09:01:31;;;;;;;30.92;20.02;;;8.20;99.90;;;;;;6101834;23;20024;-84
2022/03/02 09:04:02;;;;;;;31.13;19.35;;;8.40;99.90;;;;;;6102054;23;20080;-83
2022/03/02 09:06:28;;;;;;;30.10;18.38;;;9.00;99.90;;;;;;6077637;23;20365;-83
2022/03/02 09:08:56;;;;;;;33.10;19.58;;;9.70;99.90;;;;;;6101473;23;20025;-83
2022/03/02 09:11:22;;;;;;;29.13;18.85;;;10.30;99.90;;;;;;6101718;23;20156;-83
2022/03/02 09:13:51;;;;;;;26.45;17.95;;;10.80;99.90;;;;;;6075214;23;20019;-83
2022/03/02 09:16:17;;;;;;;31.05;19.95;;;11.40;99.90;;;;;;6101725;23;20021;-84
2022/03/02 09:18:44;;;;;;;26.40;17.90;;;11.80;99.80;;;;;;6125851;23;20088;-84
2022/03/02 09:21:12;;;;;;;27.85;18.35;;;12.50;99.40;;;;;;6101687;23;20025;-83
2022/03/02 09:23:41;;;;;;;24.00;17.10;;;13.10;98.30;;;;;;6101776;23;20060;-82
2022/03/02 09:26:16;;;;;;;25.35;17.33;;;13.40;95.60;;;;;;6102791;23;20088;-85
2022/03/02 09:28:44;;;;;;;24.55;17.67;;;13.40;92.00;;;;;;6101747;23;20021;-84
2022/03/02 09:31:14;;;;;;;26.45;16.65;;;13.60;93.30;;;;;;6125557;23;20512;-84
2022/03/02 09:33:40;;;;;;;24.25;16.77;;;14.10;92.70;;;;;;6126036;23;20021;-86
2022/03/02 09:36:08;;;;;;;25.58;17.10;;;14.10;92.00;;;;;;6125830;23;20467;-86
2022/03/02 09:38:36;;;;;;;24.23;16.20;;;14.70;90.50;;;;;;6101446;23;20025;-85
2022/03/02 09:41:16;;;;;;;27.45;18.27;;;14.60;88.10;;;;;;6125952;23;20080;-85
2022/03/02 09:43:46;;;;;;;26.83;16.52;;;14.40;83.40;;;;;;6101866;23;20029;-85
2022/03/02 09:46:16;;;;;;;24.48;17.00;;;14.70;87.30;;;;;;6126168;23;20018;-89
2022/03/02 09:48:48;;;;;;;26.65;17.65;;;15.30;87.50;;;;;;6127237;23;20476;-84
2022/03/02 09:51:21;;;;;;;25.13;17.05;;;15.40;78.10;;;;;;6127469;23;20021;-86
2022/03/02 09:53:49;;;;;;;24.00;15.98;;;15.50;81.20;;;;;;6127494;23;20013;-86
2022/03/02 09:56:15;;;;;;;24.98;16.13;;;15.50;81.70;;;;;;6102615;23;20014;-85
2022/03/02 09:58:44;;;;;;;22.10;15.32;;;15.50;79.40;;;;;;6103280;23;20017;-87
2022/03/02 10:01:15;;;;;;;24.38;16.95;;;15.50;77.70;;;;;;6127138;23;20022;-87
2022/03/02 10:03:46;;;;;;;24.38;17.17;;;16.10;76.40;;;;;;6103603;23;20013;-87
2022/03/02 10:06:12;;;;;;;22.42;15.68;;;16.20;76.60;;;;;;6103581;23;20018;-86
2022/03/02 10:08:49;;;;;;;26.40;16.52;;;16.50;76.90;;;;;;6127847;23;20025;-88
2022/03/02 10:11:23;;;;;;;22.67;15.85;;;16.90;75.00;;;;;;6103334;23;20017;-88
2022/03/02 10:13:50;;;;;;;27.50;17.60;;;17.10;71.30;;;;;;6103326;23;20510;-86
2022/03/02 10:16:27;;;;;;;22.63;15.93;;;16.80;72.30;;;;;;6103502;23;20024;-87
2022/03/02 10:18:59;;;;;;;22.75;16.80;;;17.20;69.60;;;;;;6103352;23;20132;-87
2022/03/02 10:21:33;;;;;;;22.88;15.73;;;17.00;66.30;;;;;;6128066;23;20025;-88
2022/03/02 10:24:04;;;;;;;22.88;16.10;;;17.20;68.70;;;;;;6079328;23;20108;-85
2022/03/02 10:26:32;;;;;;;23.95;16.45;;;16.90;68.70;;;;;;6103694;23;20045;-86
2022/03/02 10:29:23;;;;;;;22.73;16.17;;;16.70;69.60;;;;;;6103310;23;20649;-86
2022/03/02 10:32:08;;;;;;;24.73;15.68;;;16.70;67.10;;;;;;6102822;23;20025;-86
2022/03/02 10:34:38;;;;;;;22.15;15.63;;;17.40;68.20;;;;;;6103450;23;20017;-88
2022/03/02 10:37:08;;;;;;;23.85;16.55;;;17.60;66.50;;;;;;6102841;23;20484;-87
2022/03/02 10:40:05;;;;;;;23.23;15.77;;;17.50;68.20;;;;;;6102845;23;20080;-87
2022/03/02 10:42:34;;;;;;;21.92;15.48;;;17.30;65.20;;;;;;6128055;23;20017;-86
2022/03/02 10:45:08;;;;;;;22.13;14.60;;;17.00;67.00;;;;;;6127891;23;20009;-88
2022/03/02 10:47:41;;;;;;;20.73;14.77;;;16.90;63.90;;;;;;6127499;23;20088;-86
2022/03/02 10:50:08;;;;;;;20.35;14.57;;;16.60;65.30;;;;;;6102973;23;20017;-86
2022/03/02 10:52:37;;;;;;;25.17;15.43;;;17.00;65.90;;;;;;6103100;23;20381;-87
2022/03/02 10:55:07;;;;;;;23.98;14.07;;;16.60;65.60;;;;;;6102910;23;20349;-87
2022/03/02 10:57:34;;;;;;;19.88;13.77;;;16.20;64.60;;;;;;6127096;23;20045;-86
2022/03/02 11:00:09;;;;;;;22.10;15.13;;;15.90;63.50;;;;;;6102486;23;20587;-85
2022/03/02 11:02:39;;;;;;;21.70;13.27;;;16.10;61.60;;;;;;6127026;23;20014;-85
2022/03/02 11:05:08;;;;;;;18.15;13.77;;;16.20;62.90;;;;;;6102784;23;20017;-85
2022/03/02 11:07:35;;;;;;;21.45;14.18;;;15.70;63.90;;;;;;6127077;23;20024;-85
2022/03/02 11:10:03;;;;;;;20.92;14.10;;;15.50;63.80;;;;;;6101738;23;20025;-85
2022/03/02 11:12:30;;;;;;;20.90;14.32;;;15.20;63.40;;;;;;6126507;23;20017;-85
2022/03/02 11:15:02;;;;;;;24.60;14.65;;;15.20;63.80;;;;;;6102342;23;20018;-85
2022/03/02 11:17:29;;;;;;;18.58;13.95;;;15.40;63.90;;;;;;6102365;23;20077;-85
2022/03/02 11:19:57;;;;;;;20.30;13.75;;;15.50;62.70;;;;;;6126841;23;20089;-85
2022/03/02 11:22:25;;;;;;;21.17;13.90;;;15.60;64.00;;;;;;6127164;23;20445;-85
2022/03/02 11:24:56;;;;;;;20.00;13.40;;;15.50;63.10;;;;;;6127258;23;20049;-85
2022/03/02 11:27:38;;;;;;;19.42;13.43;;;15.40;64.30;;;;;;6126972;23;20014;-85
2022/03/02 11:30:16;;;;;;;21.93;14.77;;;15.60;63.80;;;;;;6102064;23;20041;-85
2022/03/02 11:32:48;;;;;;;21.08;13.70;;;15.70;63.50;;;;;;6126785;23;20018;-85
2022/03/02 11:35:17;;;;;;;22.92;13.18;;;15.50;64.20;;;;;;6102078;23;20021;-85
2022/03/02 11:37:44;;;;;;;20.38;13.45;;;15.20;63.40;;;;;;6127090;23;20017;-85
2022/03/02 11:40:13;;;;;;;19.88;13.57;;;15.00;65.60;;;;;;6102645;23;20092;-85
2022/03/02 11:42:43;;;;;;;21.15;14.70;;;14.50;64.80;;;;;;6102185;23;20019;-85
2022/03/02 11:45:12;;;;;;;22.13;13.63;;;14.20;64.40;;;;;;6126866;23;20080;-85
2022/03/02 11:47:55;;;;;;;19.90;14.15;;;14.00;65.70;;;;;;6102203;23;20025;-85
2022/03/02 11:50:20;;;;;;;;;;;13.90;64.60;;;;;;6126967;23;20021;-86
2022/03/02 11:52:47;;;;;;;22.88;13.98;;;13.90;66.40;;;;;;6078362;23;20355;-85
2022/03/02 11:55:18;;;;;;;20.98;14.07;;;13.80;67.00;;;;;;6101981;23;20104;-85
2022/03/02 11:57:48;;;;;;;20.75;13.40;;;13.50;66.80;;;;;;6102134;23;20025;-85
2022/03/02 12:00:19;;;;;;;21.67;13.50;;;13.20;66.50;;;;;;6102065;23;20017;-85
2022/03/02 12:02:51;;;;;;;20.60;13.35;;;13.20;66.50;;;;;;6102633;23;20020;-84
2022/03/02 12:05:22;;;;;;;22.15;14.20;;;13.20;68.00;;;;;;6127028;23;20013;-83
2022/03/02 12:08:06;;;;;;;21.55;14.55;;;13.00;67.80;;;;;;6102292;23;20024;-84
2022/03/02 12:10:34;;;;;;;23.88;14.82;;;13.10;68.50;;;;;;6102376;23;20056;-85
2022/03/02 12:13:00;;;;;;;22.17;14.38;;;13.20;69.20;;;;;;6102037;23;20072;-84
2022/03/02 12:15:49;;;;;;;21.65;14.27;;;13.10;69.00;;;;;;6102061;23;20029;-84
2022/03/02 12:18:17;;;;;;;21.25;14.02;;;13.10;66.80;;;;;;6101910;23;20028;-85
2022/03/02 12:20:48;;;;;;;21.40;14.73;;;13.20;68.60;;;;;;6126452;23;20013;-85
2022/03/02 12:23:26;;;;;;;23.25;14.80;;;13.00;68.20;;;;;;6102344;23;20533;-85
2022/03/02 12:25:53;;;;;;;22.38;14.93;;;13.20;69.90;;;;;;6101615;23;20044;-85
2022/03/02 12:28:20;;;;;;;20.95;14.20;;;13.20;68.90;;;;;;6078437;23;20045;-85
2022/03/02 12:30:46;;;;;;;22.45;13.45;;;13.40;67.70;;;;;;6102064;23;20045;-84
2022/03/02 12:33:12;;;;;;;21.55;13.15;;;13.30;68.40;;;;;;6126698;23;20025;-85
2022/03/02 12:35:38;;;;;;;17.90;13.32;;;13.50;68.60;;;;;;6078314;23;20025;-85
2022/03/02 12:38:08;;;;;;;21.67;14.15;;;13.30;68.50;;;;;;6078800;23;20022;-85
2022/03/02 12:40:40;;;;;;;21.40;14.00;;;13.40;68.30;;;;;;6109437;23;20056;-85
2022/03/02 12:43:11;;;;;;;21.53;14.20;;;13.30;67.20;;;;;;6129379;23;20018;-85
2022/03/02 12:45:40;;;;;;;22.15;14.65;;;13.50;66.70;;;;;;6154411;23;20029;-86
2022/03/02 12:48:07;;;;;;;22.13;13.30;;;13.60;67.50;;;;;;6129811;23;20119;-85